createdAt,value
2023-07-30T00:00:16.635Z,56.52
2023-07-30T00:01:22.493Z,56.66
2023-07-30T00:02:28.310Z,56.61
2023-07-30T00:03:34.257Z,56.45
2023-07-30T00:04:39.981Z,56.43
2023-07-30T00:05:45.642Z,56.41
2023-07-30T00:06:51.339Z,56.55
2023-07-30T00:07:57.233Z,56.62
2023-07-30T00:09:03.021Z,56.47
2023-07-30T00:10:08.798Z,56.45
2023-07-30T00:11:14.699Z,56.66
2023-07-30T00:12:20.463Z,56.57
2023-07-30T00:13:26.236Z,56.55
2023-07-30T00:14:31.946Z,56.76
2023-07-30T00:15:37.756Z,56.76
2023-07-30T00:16:43.673Z,56.63
2023-07-30T00:17:49.371Z,56.66
2023-07-30T00:18:55.065Z,56.84
2023-07-30T00:20:00.770Z,56.63
2023-07-30T00:21:06.573Z,56.73
2023-07-30T00:22:12.296Z,56.77
2023-07-30T00:23:17.994Z,56.72
2023-07-30T00:24:23.682Z,57.04
2023-07-30T00:25:29.421Z,56.78
2023-07-30T00:26:35.304Z,56.9
2023-07-30T00:27:41.344Z,57.13
2023-07-30T00:28:47.046Z,56.84
2023-07-30T00:29:52.836Z,56.98
2023-07-30T00:30:58.576Z,57.03
2023-07-30T00:32:04.302Z,57.22
2023-07-30T00:33:10.079Z,57.25
2023-07-30T00:34:15.622Z,57.35
2023-07-30T00:35:21.270Z,57.04
2023-07-30T00:36:26.829Z,57.15
2023-07-30T00:37:32.341Z,57.32
2023-07-30T00:38:37.865Z,57.31
2023-07-30T00:39:43.409Z,57.16
2023-07-30T00:40:48.962Z,57.54
2023-07-30T00:41:54.495Z,57.3
2023-07-30T00:43:00.033Z,57.62
2023-07-30T00:44:05.663Z,57.45
2023-07-30T00:45:11.468Z,57.47
2023-07-30T00:46:17.040Z,57.54
2023-07-30T00:47:22.592Z,57.6
2023-07-30T00:48:28.271Z,57.31
2023-07-30T00:49:33.843Z,57.63
2023-07-30T00:50:39.380Z,57.43
2023-07-30T00:51:45.074Z,57.78
2023-07-30T00:52:50.623Z,57.77
2023-07-30T00:53:56.258Z,57.46
2023-07-30T00:55:01.958Z,57.51
2023-07-30T00:56:07.527Z,57.83
2023-07-30T00:57:13.089Z,57.58
2023-07-30T00:58:18.655Z,58.2
2023-07-30T00:59:24.336Z,57.68
2023-07-30T01:00:29.924Z,57.98
2023-07-30T01:01:36.091Z,57.94
2023-07-30T01:02:42.145Z,57.59
2023-07-30T01:03:47.727Z,57.69
2023-07-30T01:04:53.377Z,57.67
2023-07-30T01:05:58.922Z,57.72
2023-07-30T01:07:04.417Z,58.12
2023-07-30T01:08:09.912Z,57.71
2023-07-30T01:09:15.405Z,57.63
2023-07-30T01:10:20.957Z,57.55
2023-07-30T01:11:26.454Z,57.71
2023-07-30T01:12:31.937Z,57.5
2023-07-30T01:13:37.443Z,57.43
2023-07-30T01:14:42.949Z,57.67
2023-07-30T01:15:48.508Z,57.83
2023-07-30T01:16:54.388Z,57.7
2023-07-30T01:18:00.087Z,58.1
2023-07-30T01:19:05.653Z,57.58
2023-07-30T01:20:11.214Z,57.64
2023-07-30T01:21:16.717Z,57.48
2023-07-30T01:22:22.362Z,57.44
2023-07-30T01:23:27.907Z,57.23
2023-07-30T01:24:33.637Z,57.5
2023-07-30T01:25:39.498Z,57.4
2023-07-30T01:26:45.238Z,57.21
2023-07-30T01:27:51.044Z,57.4
2023-07-30T01:28:56.789Z,57.01
2023-07-30T01:30:02.599Z,57.14
2023-07-30T01:31:08.574Z,57.04
2023-07-30T01:32:14.292Z,57.07
2023-07-30T01:33:20.243Z,57.23
2023-07-30T01:34:26.194Z,57.18
2023-07-30T01:35:31.990Z,57.04
2023-07-30T01:36:37.897Z,56.98
2023-07-30T01:37:43.556Z,57.28
2023-07-30T01:38:49.273Z,57.45
2023-07-30T01:39:54.991Z,56.89
2023-07-30T01:41:00.736Z,57.09
2023-07-30T01:42:06.492Z,57.38
2023-07-30T01:43:12.209Z,57.27
2023-07-30T01:44:17.805Z,57.29
2023-07-30T01:45:23.479Z,56.97
2023-07-30T01:46:29.280Z,57
2023-07-30T01:47:35.240Z,56.95
2023-07-30T01:48:41.000Z,56.94
2023-07-30T01:49:46.760Z,57.23
2023-07-30T01:50:52.555Z,57
2023-07-30T01:51:58.501Z,57.17
2023-07-30T01:53:04.066Z,56.94
2023-07-30T01:54:09.759Z,57.25
2023-07-30T01:55:15.384Z,57.03
2023-07-30T01:56:20.954Z,57.26
2023-07-30T01:57:26.620Z,57.11
2023-07-30T01:58:32.178Z,57.16
2023-07-30T01:59:37.840Z,56.86
2023-07-30T02:00:43.465Z,56.97
2023-07-30T02:01:49.215Z,57.14
2023-07-30T02:02:55.284Z,56.98
2023-07-30T02:04:01.125Z,57.12
2023-07-30T02:05:06.847Z,56.87
2023-07-30T02:06:12.372Z,57.14
2023-07-30T02:07:17.894Z,56.91
2023-07-30T02:08:23.460Z,56.78
2023-07-30T02:09:29.078Z,56.95
2023-07-30T02:10:34.698Z,56.93
2023-07-30T02:11:40.858Z,56.88
2023-07-30T02:12:46.398Z,56.86
2023-07-30T02:13:51.922Z,57.04
2023-07-30T02:14:57.480Z,56.85
2023-07-30T02:16:03.164Z,56.97
2023-07-30T02:17:08.795Z,57.15
2023-07-30T02:18:14.767Z,56.79
2023-07-30T02:19:20.349Z,57
2023-07-30T02:20:25.955Z,56.94
2023-07-30T02:21:31.563Z,56.91
2023-07-30T02:22:37.148Z,56.91
2023-07-30T02:23:42.758Z,57.24
2023-07-30T02:24:48.423Z,56.94
2023-07-30T02:25:54.134Z,56.93
2023-07-30T02:26:59.749Z,57.02
2023-07-30T02:28:05.509Z,56.89
2023-07-30T02:29:11.166Z,56.8
2023-07-30T02:30:16.809Z,56.86
2023-07-30T02:31:22.529Z,57.04
2023-07-30T02:32:28.387Z,57.15
2023-07-30T02:33:33.984Z,56.97
2023-07-30T02:34:39.639Z,57.12
2023-07-30T02:35:45.205Z,57.05
2023-07-30T02:36:50.763Z,57.25
2023-07-30T02:37:56.371Z,57.05
2023-07-30T02:39:01.980Z,56.98
2023-07-30T02:40:07.609Z,57.19
2023-07-30T02:41:13.180Z,57.13
2023-07-30T02:42:18.804Z,56.92
2023-07-30T02:43:24.437Z,56.95
2023-07-30T02:44:29.933Z,57.17
2023-07-30T02:45:35.597Z,57.06
2023-07-30T02:46:41.294Z,56.87
2023-07-30T02:47:46.934Z,57.08
2023-07-30T02:48:52.529Z,57.04
2023-07-30T02:49:58.005Z,57.32
2023-07-30T02:51:03.523Z,57.03
2023-07-30T02:52:09.094Z,57.27
2023-07-30T02:53:14.604Z,57.67
2023-07-30T02:54:20.194Z,57.27
2023-07-30T02:55:25.689Z,57.26
2023-07-30T02:56:31.213Z,57.14
2023-07-30T02:57:36.697Z,57.12
2023-07-30T02:58:42.214Z,57.09
2023-07-30T02:59:47.761Z,57.31
2023-07-30T03:00:53.390Z,57.24
2023-07-30T03:01:58.995Z,57.06
2023-07-30T03:03:04.952Z,57.13
2023-07-30T03:04:10.566Z,56.91
2023-07-30T03:05:16.073Z,57.26
2023-07-30T03:06:21.607Z,57.46
2023-07-30T03:07:27.113Z,57.17
2023-07-30T03:08:32.677Z,57.4
2023-07-30T03:09:38.195Z,57.5
2023-07-30T03:10:44.729Z,57.67
2023-07-30T03:11:50.240Z,57.43
2023-07-30T03:12:55.899Z,57.08
2023-07-30T03:14:01.439Z,57.02
2023-07-30T03:15:06.944Z,56.77
2023-07-30T03:16:12.429Z,57.16
2023-07-30T03:17:17.958Z,57.1
2023-07-30T03:18:23.545Z,56.96
2023-07-30T03:19:29.140Z,57.03
2023-07-30T03:20:34.728Z,56.61
2023-07-30T03:21:40.898Z,56.51
2023-07-30T03:22:46.493Z,56.44
2023-07-30T03:23:52.083Z,56.44
2023-07-30T03:24:57.680Z,56.83
2023-07-30T03:26:03.239Z,56.51
2023-07-30T03:27:08.848Z,56.61
2023-07-30T03:28:14.489Z,56.5
2023-07-30T03:29:20.063Z,56.42
2023-07-30T03:30:25.657Z,56.42
2023-07-30T03:31:31.325Z,56.34
2023-07-30T03:32:37.169Z,56.41
2023-07-30T03:33:42.711Z,56.4
2023-07-30T03:34:48.343Z,56.42
2023-07-30T03:35:53.851Z,56.31
2023-07-30T03:37:02.946Z,56.43
2023-07-30T03:38:08.598Z,56.27
2023-07-30T03:39:14.178Z,56.29
2023-07-30T03:40:19.741Z,56.27
2023-07-30T03:41:25.320Z,56.28
2023-07-30T03:42:30.920Z,56.42
2023-07-30T03:43:36.500Z,56.27
2023-07-30T03:44:42.086Z,56.28
2023-07-30T03:45:47.640Z,56.43
2023-07-30T03:46:53.417Z,56.21
2023-07-30T03:47:59.028Z,56.21
2023-07-30T03:49:04.581Z,56.41
2023-07-30T03:50:10.237Z,56.34
2023-07-30T03:51:15.865Z,56.39
2023-07-30T03:52:21.562Z,56.39
2023-07-30T03:53:27.195Z,56.84
2023-07-30T03:54:32.916Z,56.78
2023-07-30T03:55:38.571Z,56.65
2023-07-30T03:56:44.250Z,56.47
2023-07-30T03:57:49.880Z,56.32
2023-07-30T03:58:55.544Z,56.32
2023-07-30T04:00:01.240Z,56.42
2023-07-30T04:01:07.017Z,56.48
2023-07-30T04:02:12.684Z,56.46
2023-07-30T04:03:18.662Z,56.69
2023-07-30T04:04:24.305Z,56.43
2023-07-30T04:05:29.961Z,56.63
2023-07-30T04:06:35.605Z,56.64
2023-07-30T04:07:43.974Z,56.57
2023-07-30T04:08:49.628Z,56.58
2023-07-30T04:09:55.232Z,56.58
2023-07-30T04:11:00.881Z,56.83
2023-07-30T04:12:06.523Z,56.61
2023-07-30T04:13:12.100Z,56.66
2023-07-30T04:14:17.674Z,56.61
2023-07-30T04:15:23.339Z,56.82
2023-07-30T04:16:29.111Z,56.8
2023-07-30T04:17:34.924Z,56.87
2023-07-30T04:18:40.548Z,56.71
2023-07-30T04:19:46.196Z,56.68
2023-07-30T04:20:51.815Z,56.84
2023-07-30T04:21:57.489Z,56.53
2023-07-30T04:23:03.172Z,56.39
2023-07-30T04:24:08.912Z,56.36
2023-07-30T04:25:14.622Z,56.4
2023-07-30T04:26:20.306Z,56.38
2023-07-30T04:27:28.940Z,56.41
2023-07-30T04:28:35.671Z,56.27
2023-07-30T04:29:41.752Z,56.46
2023-07-30T04:30:47.671Z,56.35
2023-07-30T04:31:53.339Z,56.45
2023-07-30T04:32:59.036Z,56.38
2023-07-30T04:34:04.639Z,56.43
2023-07-30T04:35:10.288Z,56.41
2023-07-30T04:36:15.904Z,56.4
2023-07-30T04:37:21.524Z,56.65
2023-07-30T04:38:27.087Z,56.38
2023-07-30T04:39:32.726Z,56.33
2023-07-30T04:40:38.336Z,56.48
2023-07-30T04:41:44.995Z,56.33
2023-07-30T04:42:50.718Z,56.41
2023-07-30T04:43:56.400Z,56.24
2023-07-30T04:45:02.015Z,56.38
2023-07-30T04:46:07.727Z,56.49
2023-07-30T04:47:13.371Z,56.32
2023-07-30T04:48:18.977Z,56.55
2023-07-30T04:49:24.631Z,56.71
2023-07-30T04:50:30.223Z,56.44
2023-07-30T04:51:36.019Z,56.63
2023-07-30T04:52:41.782Z,56.4
2023-07-30T04:53:47.347Z,56.35
2023-07-30T04:54:52.981Z,56.6
2023-07-30T04:55:58.583Z,56.49
2023-07-30T04:57:04.101Z,56.41
2023-07-30T04:58:09.606Z,56.41
2023-07-30T04:59:15.186Z,56.63
2023-07-30T05:00:20.777Z,56.4
2023-07-30T05:01:26.469Z,56.54
2023-07-30T05:02:32.127Z,56.77
2023-07-30T05:03:37.911Z,56.98
2023-07-30T05:04:43.436Z,57.17
2023-07-30T05:05:48.973Z,57.16
2023-07-30T05:06:54.483Z,57.25
2023-07-30T05:08:00.055Z,57.21
2023-07-30T05:09:05.550Z,57.31
2023-07-30T05:10:11.273Z,57.18
2023-07-30T05:11:16.845Z,57.12
2023-07-30T05:12:22.519Z,57.06
2023-07-30T05:13:29.305Z,56.88
2023-07-30T05:14:34.775Z,56.92
2023-07-30T05:15:40.300Z,56.98
2023-07-30T05:16:45.810Z,57
2023-07-30T05:17:51.497Z,56.96
2023-07-30T05:18:57.066Z,56.76
2023-07-30T05:20:02.673Z,56.92
2023-07-30T05:21:08.199Z,56.89
2023-07-30T05:22:13.810Z,56.98
2023-07-30T05:23:19.471Z,56.82
2023-07-30T05:24:25.028Z,57.07
2023-07-30T05:25:30.569Z,56.84
2023-07-30T05:26:36.087Z,56.75
2023-07-30T05:27:41.658Z,56.94
2023-07-30T05:28:47.169Z,56.9
2023-07-30T05:29:52.729Z,56.92
2023-07-30T05:30:58.253Z,56.78
2023-07-30T05:32:03.992Z,56.71
2023-07-30T05:33:09.705Z,56.82
2023-07-30T05:34:15.221Z,56.62
2023-07-30T05:35:20.771Z,56.48
2023-07-30T05:36:26.300Z,56.6
2023-07-30T05:37:31.781Z,56.62
2023-07-30T05:38:37.354Z,56.7
2023-07-30T05:39:42.860Z,56.55
2023-07-30T05:40:48.461Z,56.78
2023-07-30T05:41:53.971Z,56.57
2023-07-30T05:42:59.478Z,56.63
2023-07-30T05:44:05.004Z,56.45
2023-07-30T05:45:10.565Z,56.57
2023-07-30T05:46:16.372Z,56.57
2023-07-30T05:47:22.170Z,56.62
2023-07-30T05:48:27.900Z,56.27
2023-07-30T05:49:33.527Z,56.23
2023-07-30T05:50:39.124Z,56.25
2023-07-30T05:51:44.841Z,56.18
2023-07-30T05:52:50.637Z,56.44
2023-07-30T05:53:56.496Z,56.26
2023-07-30T05:55:02.279Z,56.07
2023-07-30T05:56:08.249Z,56.24
2023-07-30T05:57:13.914Z,56.15
2023-07-30T05:58:19.662Z,56.13
2023-07-30T05:59:26.706Z,56.34
2023-07-30T06:00:32.406Z,56.47
2023-07-30T06:01:38.821Z,56.43
2023-07-30T06:02:44.742Z,56.42
2023-07-30T06:03:50.551Z,56.6
2023-07-30T06:04:56.259Z,56.57
2023-07-30T06:06:01.830Z,56.67
2023-07-30T06:07:07.530Z,56.42
2023-07-30T06:08:13.072Z,56.54
2023-07-30T06:09:18.744Z,56.58
2023-07-30T06:10:24.350Z,56.54
2023-07-30T06:11:29.905Z,56.62
2023-07-30T06:12:35.538Z,56.62
2023-07-30T06:13:41.110Z,56.31
2023-07-30T06:14:46.682Z,56.6
2023-07-30T06:15:52.561Z,56.74
2023-07-30T06:16:58.623Z,56.54
2023-07-30T06:18:04.817Z,56.47
2023-07-30T06:19:10.714Z,56.38
2023-07-30T06:20:16.631Z,56.49
2023-07-30T06:21:22.547Z,56.39
2023-07-30T06:22:28.886Z,56.46
2023-07-30T06:23:34.522Z,56.36
2023-07-30T06:24:40.236Z,56.49
2023-07-30T06:25:45.776Z,56.42
2023-07-30T06:26:51.359Z,56.48
2023-07-30T06:27:57.196Z,56.41
2023-07-30T06:29:02.781Z,56.59
2023-07-30T06:30:08.370Z,55.9
2023-07-30T06:31:14.098Z,56.36
2023-07-30T06:32:19.773Z,56.41
2023-07-30T06:33:29.695Z,56.56
2023-07-30T06:34:37.516Z,56.48
2023-07-30T06:35:43.080Z,56.55
2023-07-30T06:36:48.654Z,56.4
2023-07-30T06:37:54.212Z,56.21
2023-07-30T06:38:59.740Z,56.03
2023-07-30T06:40:05.536Z,56.02
2023-07-30T06:41:11.187Z,55.91
2023-07-30T06:42:16.916Z,56.07
2023-07-30T06:43:22.622Z,56.2
2023-07-30T06:44:28.186Z,56.11
2023-07-30T06:45:33.777Z,55.92
2023-07-30T06:46:39.425Z,55.84
2023-07-30T06:47:45.039Z,55.93
2023-07-30T06:48:50.528Z,56.07
2023-07-30T06:49:56.011Z,55.96
2023-07-30T06:51:01.687Z,55.84
2023-07-30T06:52:07.225Z,56.14
2023-07-30T06:53:12.764Z,56
2023-07-30T06:54:18.326Z,56.2
2023-07-30T06:55:23.936Z,55.95
2023-07-30T06:56:30.771Z,56.11
2023-07-30T06:57:36.513Z,55.79
2023-07-30T07:00:10.679Z,55.85
2023-07-30T07:01:16.297Z,55.65
2023-07-30T07:02:22.163Z,55.71
2023-07-30T07:03:28.037Z,55.37
2023-07-30T07:04:33.680Z,55.71
2023-07-30T07:05:39.217Z,55.89
2023-07-30T07:06:44.717Z,55.86
2023-07-30T07:07:50.491Z,55.77
2023-07-30T07:08:56.052Z,55.36
2023-07-30T07:10:01.576Z,55.38
2023-07-30T07:11:07.155Z,55.45
2023-07-30T07:12:12.726Z,55.4
2023-07-30T07:13:18.228Z,55.42
2023-07-30T07:14:23.749Z,55.67
2023-07-30T07:15:29.242Z,55.48
2023-07-30T07:16:34.882Z,55.31
2023-07-30T07:17:40.768Z,55.62
2023-07-30T07:18:46.452Z,55.57
2023-07-30T07:19:51.991Z,55.91
2023-07-30T07:20:57.525Z,55.94
2023-07-30T07:22:03.138Z,55.75
2023-07-30T07:23:09.433Z,55.86
2023-07-30T07:24:15.697Z,55.67
2023-07-30T07:25:21.286Z,55.78
2023-07-30T07:26:26.788Z,56.07
2023-07-30T07:27:32.328Z,55.99
2023-07-30T07:28:37.943Z,55.95
2023-07-30T07:29:43.500Z,55.95
2023-07-30T07:30:49.126Z,55.78
2023-07-30T07:31:54.652Z,55.78
2023-07-30T07:33:00.405Z,55.98
2023-07-30T07:34:05.971Z,55.79
2023-07-30T07:35:11.476Z,55.66
2023-07-30T07:36:16.973Z,55.52
2023-07-30T07:37:22.489Z,55.42
2023-07-30T07:38:27.994Z,55.5
2023-07-30T07:39:33.524Z,55.56
2023-07-30T07:40:39.047Z,55.61
2023-07-30T07:41:44.521Z,55.6
2023-07-30T07:42:50.500Z,55.72
2023-07-30T07:43:56.008Z,55.56
2023-07-30T07:45:01.513Z,55.64
2023-07-30T07:46:07.171Z,55.46
2023-07-30T07:47:12.715Z,55.62
2023-07-30T07:48:18.310Z,55.44
2023-07-30T07:49:23.816Z,55.56
2023-07-30T07:50:29.353Z,55.51
2023-07-30T07:51:35.105Z,55.59
2023-07-30T07:52:40.716Z,55.59
2023-07-30T07:53:46.265Z,55.57
2023-07-30T07:54:51.752Z,55.55
2023-07-30T07:55:57.264Z,55.46
2023-07-30T07:57:02.840Z,55.6
2023-07-30T07:58:08.366Z,55.69
2023-07-30T07:59:13.854Z,55.55
2023-07-30T08:00:19.377Z,55.64
2023-07-30T08:01:25.104Z,55.56
2023-07-30T08:02:30.869Z,55.61
2023-07-30T08:03:36.635Z,55.6
2023-07-30T08:04:42.662Z,55.73
2023-07-30T08:05:48.311Z,55.7
2023-07-30T08:06:53.854Z,55.72
2023-07-30T08:07:59.348Z,55.72
2023-07-30T08:09:04.906Z,55.62
2023-07-30T08:10:10.422Z,55.6
2023-07-30T08:11:15.948Z,55.64
2023-07-30T08:12:21.507Z,55.76
2023-07-30T08:13:27.005Z,55.69
2023-07-30T08:14:32.578Z,55.76
2023-07-30T08:15:38.217Z,55.79
2023-07-30T08:16:43.948Z,55.81
2023-07-30T08:17:50.646Z,55.78
2023-07-30T08:18:56.171Z,55.78
2023-07-30T08:20:01.719Z,55.64
2023-07-30T08:21:07.279Z,55.62
2023-07-30T08:22:12.802Z,55.69
2023-07-30T08:23:18.313Z,55.92
2023-07-30T08:24:23.802Z,55.89
2023-07-30T08:25:29.460Z,55.75
2023-07-30T08:26:35.009Z,55.81
2023-07-30T08:27:40.520Z,55.9
2023-07-30T08:28:46.072Z,55.96
2023-07-30T08:29:51.560Z,55.99
2023-07-30T08:30:57.086Z,55.79
2023-07-30T08:32:02.951Z,55.8
2023-07-30T08:33:08.814Z,55.85
2023-07-30T08:34:14.410Z,55.87
2023-07-30T08:35:19.934Z,55.84
2023-07-30T08:36:26.795Z,55.76
2023-07-30T08:37:32.326Z,55.72
2023-07-30T08:38:37.859Z,55.63
2023-07-30T08:39:43.406Z,55.64
2023-07-30T08:40:48.989Z,55.55
2023-07-30T08:41:54.490Z,55.58
2023-07-30T08:43:00.164Z,55.67
2023-07-30T08:44:05.768Z,55.56
2023-07-30T08:45:11.303Z,55.47
2023-07-30T08:46:16.985Z,55.6
2023-07-30T08:47:22.543Z,55.58
2023-07-30T08:48:28.399Z,55.53
2023-07-30T08:49:34.055Z,55.48
2023-07-30T08:50:39.815Z,55.54
2023-07-30T08:51:45.514Z,55.33
2023-07-30T08:52:51.209Z,55.64
2023-07-30T08:53:56.870Z,55.87
2023-07-30T08:55:02.590Z,55.63
2023-07-30T08:56:08.183Z,55.24
2023-07-30T08:57:13.821Z,55.1
2023-07-30T08:58:19.603Z,55.12
2023-07-30T08:59:25.276Z,55.02
2023-07-30T09:00:30.996Z,54.94
2023-07-30T09:01:37.462Z,55.07
2023-07-30T09:02:43.387Z,54.85
2023-07-30T09:03:49.153Z,54.81
2023-07-30T09:04:54.844Z,54.62
2023-07-30T09:06:00.497Z,54.68
2023-07-30T09:07:06.135Z,54.51
2023-07-30T09:08:11.907Z,54.52
2023-07-30T09:09:17.602Z,54.3
2023-07-30T09:10:23.420Z,54.46
2023-07-30T09:11:29.355Z,54.26
2023-07-30T09:12:35.049Z,54.33
2023-07-30T09:13:40.708Z,54.32
2023-07-30T09:14:46.261Z,54.28
2023-07-30T09:15:51.832Z,54.17
2023-07-30T09:16:57.341Z,53.76
2023-07-30T09:18:02.976Z,53.46
2023-07-30T09:19:08.600Z,53.68
2023-07-30T09:20:14.271Z,53.49
2023-07-30T09:21:19.840Z,53.33
2023-07-30T09:22:25.402Z,53.63
2023-07-30T09:23:30.908Z,53.78
2023-07-30T09:24:36.416Z,53.43
2023-07-30T09:25:41.896Z,53.32
2023-07-30T09:26:47.484Z,53.4
2023-07-30T09:27:53.102Z,53.11
2023-07-30T09:28:58.675Z,53.13
2023-07-30T09:30:04.192Z,53.19
2023-07-30T09:31:24.594Z,53.13
2023-07-30T09:32:30.191Z,53.07
2023-07-30T09:33:35.715Z,53.01
2023-07-30T09:34:41.221Z,52.85
2023-07-30T09:35:46.696Z,52.67
2023-07-30T09:36:55.129Z,52.57
2023-07-30T09:38:00.647Z,52.66
2023-07-30T09:39:06.194Z,52.58
2023-07-30T09:40:11.708Z,52.58
2023-07-30T09:41:17.470Z,52.51
2023-07-30T09:42:22.967Z,52.49
2023-07-30T09:43:28.633Z,52.66
2023-07-30T09:44:34.530Z,52.29
2023-07-30T09:45:40.510Z,51.9
2023-07-30T09:46:46.160Z,51.99
2023-07-30T09:47:51.897Z,51.99
2023-07-30T09:48:57.510Z,51.99
2023-07-30T09:50:03.173Z,51.67
2023-07-30T09:51:08.878Z,51.69
2023-07-30T09:52:14.429Z,51.78
2023-07-30T09:53:20.100Z,51.76
2023-07-30T09:54:25.789Z,51.68
2023-07-30T09:55:31.582Z,51.48
2023-07-30T09:56:37.253Z,51.38
2023-07-30T09:57:42.892Z,51.38
2023-07-30T09:58:48.620Z,51.36
2023-07-30T09:59:54.259Z,51.28
2023-07-30T10:01:00.071Z,51.14
2023-07-30T10:02:05.842Z,51.32
2023-07-30T10:03:11.584Z,51.12
2023-07-30T10:04:17.453Z,51.2
2023-07-30T10:05:23.141Z,50.92
2023-07-30T10:06:28.808Z,51
2023-07-30T10:07:34.553Z,50.89
2023-07-30T10:08:40.214Z,50.8
2023-07-30T10:09:45.938Z,50.86
2023-07-30T10:10:51.589Z,50.97
2023-07-30T10:11:57.961Z,50.93
2023-07-30T10:13:03.659Z,50.95
2023-07-30T10:14:09.318Z,50.92
2023-07-30T10:15:15.091Z,50.85
2023-07-30T10:16:20.786Z,50.83
2023-07-30T10:17:26.446Z,50.58
2023-07-30T10:18:32.099Z,50.76
2023-07-30T10:19:37.990Z,50.75
2023-07-30T10:20:43.722Z,50.71
2023-07-30T10:21:49.459Z,50.59
2023-07-30T10:22:55.062Z,50.72
2023-07-30T10:24:04.708Z,50.7
2023-07-30T10:25:10.339Z,50.66
2023-07-30T10:26:16.036Z,50.67
2023-07-30T10:27:21.826Z,50.73
2023-07-30T10:28:27.726Z,50.67
2023-07-30T10:29:33.402Z,50.64
2023-07-30T10:30:39.186Z,50.66
2023-07-30T10:31:44.844Z,50.73
2023-07-30T10:32:50.589Z,50.7
2023-07-30T10:33:56.482Z,50.68
2023-07-30T10:35:02.133Z,50.57
2023-07-30T10:36:07.842Z,50.65
2023-07-30T10:37:13.480Z,50.59
2023-07-30T10:38:19.146Z,50.64
2023-07-30T10:39:24.738Z,50.57
2023-07-30T10:40:30.472Z,50.62
2023-07-30T10:41:36.464Z,50.76
2023-07-30T10:42:42.277Z,50.73
2023-07-30T10:43:48.018Z,50.71
2023-07-30T10:44:53.697Z,50.7
2023-07-30T10:46:01.298Z,50.75
2023-07-30T10:47:07.318Z,50.7
2023-07-30T10:48:13.204Z,50.59
2023-07-30T10:49:18.770Z,50.65
2023-07-30T10:50:24.295Z,50.73
2023-07-30T10:51:35.736Z,50.49
2023-07-30T10:52:41.348Z,50.68
2023-07-30T10:53:46.832Z,50.62
2023-07-30T10:54:52.345Z,50.66
2023-07-30T10:55:57.924Z,50.6
2023-07-30T10:57:03.431Z,50.69
2023-07-30T10:58:08.971Z,50.54
2023-07-30T10:59:14.482Z,50.61
2023-07-30T11:00:20.030Z,50.55
2023-07-30T11:01:26.016Z,50.82
2023-07-30T11:02:32.203Z,50.38
2023-07-30T11:03:38.244Z,50.35
2023-07-30T11:04:43.928Z,50.43
2023-07-30T11:05:49.561Z,50.34
2023-07-30T11:06:55.198Z,50.37
2023-07-30T11:08:00.822Z,50.37
2023-07-30T11:09:06.440Z,50.43
2023-07-30T11:10:12.030Z,50.43
2023-07-30T11:11:17.688Z,50.43
2023-07-30T11:12:23.469Z,50.45
2023-07-30T11:13:29.112Z,50.39
2023-07-30T11:14:34.884Z,50.52
2023-07-30T11:15:40.534Z,50.53
2023-07-30T11:16:46.240Z,50.74
2023-07-30T11:17:52.060Z,50.46
2023-07-30T11:18:57.817Z,50.47
2023-07-30T11:20:03.566Z,50.41
2023-07-30T11:21:09.209Z,50.34
2023-07-30T11:22:14.706Z,50.73
2023-07-30T11:23:20.280Z,50.15
2023-07-30T11:24:25.953Z,50.4
2023-07-30T11:25:31.566Z,50.56
2023-07-30T11:26:37.234Z,50.33
2023-07-30T11:27:42.763Z,50.61
2023-07-30T11:28:48.374Z,50.62
2023-07-30T11:29:53.886Z,50.64
2023-07-30T11:30:59.381Z,50.54
2023-07-30T11:32:05.021Z,50.59
2023-07-30T11:33:10.686Z,50.65
2023-07-30T11:34:16.250Z,50.82
2023-07-30T11:35:21.803Z,50.88
2023-07-30T11:36:27.355Z,50.88
2023-07-30T11:37:32.902Z,50.94
2023-07-30T11:38:38.445Z,50.96
2023-07-30T11:39:46.871Z,51
2023-07-30T11:40:52.470Z,51.01
2023-07-30T11:41:58.036Z,51.03
2023-07-30T11:43:03.617Z,51.07
2023-07-30T11:44:09.098Z,51.1
2023-07-30T11:45:14.605Z,51.13
2023-07-30T11:46:20.292Z,51.15
2023-07-30T11:47:25.995Z,51.17
2023-07-30T11:48:31.565Z,51.21
2023-07-30T11:49:37.087Z,51.21
2023-07-30T11:50:42.607Z,51.24
2023-07-30T11:51:48.132Z,51.28
2023-07-30T11:52:53.634Z,51.3
2023-07-30T11:53:59.349Z,51.3
2023-07-30T11:55:04.979Z,51.3
2023-07-30T11:56:10.466Z,51.34
2023-07-30T11:57:16.022Z,51.38
2023-07-30T11:58:21.539Z,51.4
2023-07-30T11:59:27.207Z,51.42
2023-07-30T12:00:32.856Z,51.44
2023-07-30T12:01:39.911Z,51.45
2023-07-30T12:02:45.822Z,51.48
2023-07-30T12:03:51.768Z,51.52
2023-07-30T12:05:14.309Z,51.53
2023-07-30T12:06:20.022Z,51.54
2023-07-30T12:07:25.743Z,51.53
2023-07-30T12:08:31.562Z,51.5
2023-07-30T12:09:37.180Z,51.5
2023-07-30T12:10:42.883Z,51.55
2023-07-30T12:11:48.608Z,51.57
2023-07-30T12:14:28.928Z,51.59
2023-07-30T12:15:34.657Z,51.63
2023-07-30T12:16:40.668Z,51.62
2023-07-30T12:17:46.535Z,51.61
2023-07-30T12:18:52.172Z,51.61
2023-07-30T12:19:57.845Z,51.62
2023-07-30T12:21:03.493Z,51.62
2023-07-30T12:22:09.224Z,51.63
2023-07-30T12:23:14.907Z,51.62
2023-07-30T12:24:20.554Z,51.64
2023-07-30T12:25:26.390Z,51.66
2023-07-30T12:26:32.019Z,51.69
2023-07-30T12:27:37.703Z,51.66
2023-07-30T12:28:43.374Z,51.71
2023-07-30T12:29:49.046Z,51.71
2023-07-30T12:30:54.669Z,51.73
2023-07-30T12:32:05.415Z,51.73
2023-07-30T12:33:11.114Z,51.75
2023-07-30T12:34:16.788Z,51.73
2023-07-30T12:35:22.378Z,51.73
2023-07-30T12:36:28.024Z,51.73
2023-07-30T12:37:33.671Z,51.75
2023-07-30T12:38:39.346Z,51.75
2023-07-30T12:39:44.998Z,51.78
2023-07-30T12:40:50.668Z,51.79
2023-07-30T12:41:56.375Z,51.81
2023-07-30T12:43:02.034Z,51.83
2023-07-30T12:44:07.687Z,51.83
2023-07-30T12:45:13.563Z,51.82
2023-07-30T12:46:19.443Z,51.84
2023-07-30T12:47:25.181Z,51.84
2023-07-30T12:48:31.019Z,51.84
2023-07-30T12:49:37.049Z,51.87
2023-07-30T12:50:42.956Z,51.88
2023-07-30T12:51:48.674Z,51.91
2023-07-30T12:52:54.320Z,51.9
2023-07-30T12:53:59.953Z,51.94
2023-07-30T12:55:05.649Z,51.93
2023-07-30T12:56:11.300Z,51.91
2023-07-30T12:57:16.941Z,51.93
2023-07-30T12:58:22.554Z,51.93
2023-07-30T12:59:28.392Z,51.91
2023-07-30T13:00:34.420Z,51.92
2023-07-30T13:01:42.918Z,51.9
2023-07-30T13:02:50.343Z,51.9
2023-07-30T13:03:56.221Z,51.92
2023-07-30T13:05:01.848Z,51.92
2023-07-30T13:06:07.494Z,51.9
2023-07-30T13:07:13.253Z,51.86
2023-07-30T13:08:18.908Z,51.84
2023-07-30T13:09:24.702Z,51.85
2023-07-30T13:10:30.222Z,51.87
2023-07-30T13:11:35.825Z,51.81
2023-07-30T13:12:41.417Z,51.79
2023-07-30T13:13:46.932Z,51.77
2023-07-30T13:14:52.482Z,51.75
2023-07-30T13:15:58.037Z,51.76
2023-07-30T13:17:03.683Z,51.74
2023-07-30T13:18:09.317Z,51.72
2023-07-30T13:19:14.817Z,51.71
2023-07-30T13:20:22.947Z,51.71
2023-07-30T13:21:28.465Z,51.72
2023-07-30T13:22:33.997Z,51.68
2023-07-30T13:23:39.595Z,51.68
2023-07-30T13:24:45.170Z,51.67
2023-07-30T13:25:50.708Z,51.68
2023-07-30T13:26:56.249Z,51.67
2023-07-30T13:28:02.130Z,51.68
2023-07-30T13:29:07.648Z,51.67
2023-07-30T13:30:13.381Z,51.7
2023-07-30T13:31:19.053Z,51.7
2023-07-30T13:32:24.719Z,51.67
2023-07-30T13:33:30.304Z,51.66
2023-07-30T13:34:35.833Z,51.63
2023-07-30T13:35:41.357Z,51.58
2023-07-30T13:36:46.974Z,51.57
2023-07-30T13:37:52.583Z,51.55
2023-07-30T13:38:58.216Z,51.54
2023-07-30T13:40:03.798Z,51.56
2023-07-30T13:41:09.341Z,51.54
2023-07-30T13:42:14.873Z,51.5
2023-07-30T13:43:20.376Z,51.46
2023-07-30T13:44:25.990Z,51.4
2023-07-30T13:45:31.487Z,51.35
2023-07-30T13:46:37.248Z,51.35
2023-07-30T13:47:43.164Z,51.29
2023-07-30T13:48:48.724Z,51.25
2023-07-30T13:49:54.282Z,51.25
2023-07-30T13:50:59.771Z,51.22
2023-07-30T13:52:05.284Z,51.18
2023-07-30T13:53:10.864Z,51.21
2023-07-30T13:54:16.398Z,51.2
2023-07-30T13:55:22.005Z,51.2
2023-07-30T13:56:27.502Z,51.25
2023-07-30T13:57:35.215Z,51.27
2023-07-30T13:58:42.270Z,51.3
2023-07-30T13:59:47.818Z,51.35
2023-07-30T14:00:53.500Z,51.37
2023-07-30T14:01:59.187Z,51.37
2023-07-30T14:03:04.871Z,51.37
2023-07-30T14:04:10.457Z,51.37
2023-07-30T14:05:16.026Z,51.37
2023-07-30T14:06:21.543Z,51.39
2023-07-30T14:07:27.050Z,51.43
2023-07-30T14:08:32.558Z,51.45
2023-07-30T14:09:38.089Z,51.45
2023-07-30T14:10:43.615Z,51.44
2023-07-30T14:11:49.326Z,51.43
2023-07-30T14:12:54.990Z,51.42